createdAt,value
2022-12-07T00:02:24.155Z,7.63
2022-12-07T00:05:12.695Z,8.17
2022-12-07T00:08:01.133Z,9.47
2022-12-07T00:10:49.527Z,7.47
2022-12-07T00:13:39.446Z,9.93
2022-12-07T00:16:30.643Z,7.37
2022-12-07T00:19:19.084Z,7.00
2022-12-07T00:22:07.416Z,6.70
2022-12-07T00:24:55.808Z,8.13
2022-12-07T00:27:44.280Z,7.87
2022-12-07T00:30:33.962Z,6.97
2022-12-07T00:33:22.329Z,7.73
2022-12-07T00:36:12.291Z,8.70
2022-12-07T00:39:03.104Z,8.50
2022-12-07T00:41:51.458Z,8.03
2022-12-07T00:44:39.904Z,7.77
2022-12-07T00:47:29.626Z,7.37
2022-12-07T00:50:18.081Z,6.87
2022-12-07T00:53:06.437Z,8.00
2022-12-07T00:55:54.783Z,7.50
2022-12-07T00:58:43.160Z,7.10
2022-12-07T01:01:33.259Z,7.87
2022-12-07T01:04:23.054Z,6.77
2022-12-07T01:07:11.423Z,6.47
2022-12-07T01:10:00.064Z,8.03
2022-12-07T01:12:48.724Z,7.70
2022-12-07T01:15:39.244Z,8.43
2022-12-07T01:18:28.162Z,8.90
2022-12-07T01:21:19.061Z,7.97
2022-12-07T01:24:09.114Z,7.73
2022-12-07T01:26:57.471Z,8.47
2022-12-07T01:29:45.829Z,8.23
2022-12-07T01:32:34.535Z,8.03
2022-12-07T01:35:22.889Z,7.03
2022-12-07T01:38:12.558Z,7.73
2022-12-07T01:41:02.043Z,7.73
2022-12-07T01:44:14.173Z,7.77
2022-12-07T01:47:03.796Z,7.03
2022-12-07T01:49:52.132Z,8.03
2022-12-07T01:52:40.495Z,7.27
2022-12-07T01:55:30.230Z,8.77
2022-12-07T01:58:18.582Z,8.03
2022-12-07T02:01:07.219Z,9.27
2022-12-07T02:03:55.683Z,9.00
2022-12-07T02:06:44.060Z,8.80
2022-12-07T02:09:32.462Z,10.47
2022-12-07T02:12:22.310Z,7.70
2022-12-07T02:15:11.328Z,7.70
2022-12-07T02:18:02.865Z,9.07
2022-12-07T02:20:56.577Z,8.37
2022-12-07T02:24:14.292Z,9.27
2022-12-07T02:27:39.927Z,12.23
2022-12-07T02:30:30.590Z,11.33
2022-12-07T02:33:20.844Z,9.30
2022-12-07T02:36:12.064Z,9.93
2022-12-07T02:39:03.078Z,11.27
2022-12-07T02:41:53.737Z,7.50
2022-12-07T02:44:42.123Z,9.50
2022-12-07T02:47:31.871Z,8.87
2022-12-07T02:50:20.745Z,8.23
2022-12-07T02:53:31.018Z,8.27
2022-12-07T02:56:26.722Z,8.13
2022-12-07T02:59:20.027Z,9.87
2022-12-07T03:02:18.081Z,8.67
2022-12-07T03:05:17.951Z,9.10
2022-12-07T03:08:09.290Z,8.97
2022-12-07T03:11:00.622Z,10.70
2022-12-07T03:13:51.881Z,9.30
2022-12-07T03:16:42.773Z,9.77
2022-12-07T03:19:31.131Z,10.83
2022-12-07T03:22:21.744Z,9.10
2022-12-07T03:25:12.347Z,10.47
2022-12-07T03:28:02.893Z,9.57
2022-12-07T03:30:55.416Z,8.83
2022-12-07T03:33:48.394Z,10.27
2022-12-07T03:36:41.031Z,10.63
2022-12-07T03:39:34.488Z,9.97
2022-12-07T03:42:23.056Z,9.17
2022-12-07T03:45:12.022Z,11.40
2022-12-07T03:48:04.842Z,10.13
2022-12-07T03:50:55.555Z,9.73
2022-12-07T03:53:46.957Z,10.23
2022-12-07T03:56:36.822Z,10.13
2022-12-07T03:59:25.360Z,9.37
2022-12-07T04:02:14.672Z,9.77
2022-12-07T04:05:03.236Z,9.33
2022-12-07T04:07:51.681Z,10.77
2022-12-07T04:10:40.076Z,9.27
2022-12-07T04:13:29.894Z,8.00
2022-12-07T04:16:18.378Z,9.00
2022-12-07T04:19:06.929Z,9.03
2022-12-07T04:21:55.438Z,8.60
2022-12-07T04:24:43.860Z,9.00
2022-12-07T04:27:32.250Z,7.93
2022-12-07T04:30:22.392Z,8.57
2022-12-07T04:33:10.789Z,9.73
2022-12-07T04:35:59.228Z,9.80
2022-12-07T04:38:47.662Z,7.87
2022-12-07T04:41:36.073Z,10.40
2022-12-07T04:44:24.874Z,10.13
2022-12-07T04:47:14.775Z,10.67
2022-12-07T04:50:03.516Z,10.07
2022-12-07T04:52:52.071Z,8.77
2022-12-07T04:55:40.648Z,8.03
2022-12-07T04:58:29.176Z,9.70
2022-12-07T05:01:18.235Z,9.70
2022-12-07T05:04:08.242Z,7.30
2022-12-07T05:06:57.128Z,9.60
2022-12-07T05:09:45.613Z,9.27
2022-12-07T05:12:34.016Z,9.87
2022-12-07T05:15:22.453Z,8.73
2022-12-07T05:18:10.857Z,7.93
2022-12-07T05:21:00.714Z,10.03
2022-12-07T05:23:49.247Z,8.60
2022-12-07T05:26:37.704Z,8.63
2022-12-07T05:29:26.216Z,7.77
2022-12-07T05:32:14.676Z,7.43
2022-12-07T05:35:03.158Z,8.33
2022-12-07T05:37:52.927Z,6.90
2022-12-07T05:40:41.369Z,9.83
2022-12-07T05:43:29.838Z,7.00
2022-12-07T05:46:18.298Z,7.63
2022-12-07T05:49:06.788Z,7.13
2022-12-07T05:51:55.189Z,6.53
2022-12-07T05:54:45.034Z,7.00
2022-12-07T05:57:33.420Z,8.00
2022-12-07T06:00:21.514Z,8.13
2022-12-07T06:03:10.029Z,7.73
2022-12-07T06:05:58.625Z,10.13
2022-12-07T06:08:47.099Z,7.30
2022-12-07T06:11:54.631Z,7.53
2022-12-07T06:14:43.148Z,8.67
2022-12-07T06:17:31.545Z,7.53
2022-12-07T06:20:19.970Z,7.27
2022-12-07T06:23:08.639Z,8.07
2022-12-07T06:25:57.327Z,8.30
2022-12-07T06:28:47.097Z,6.53
2022-12-07T06:31:36.058Z,7.73
2022-12-07T06:34:25.244Z,8.33
2022-12-07T06:37:13.676Z,7.40
2022-12-07T06:40:02.853Z,11.97
2022-12-07T06:42:51.497Z,8.30
2022-12-07T06:45:41.866Z,6.67
2022-12-07T06:48:30.371Z,8.50
2022-12-07T06:51:18.898Z,7.90
2022-12-07T06:54:07.575Z,8.13
2022-12-07T06:56:56.003Z,8.70
2022-12-07T06:59:44.747Z,8.13
2022-12-07T07:02:34.679Z,8.17
2022-12-07T07:05:02.986Z,7.27
2022-12-07T07:07:31.280Z,9.13
2022-12-07T07:10:00.023Z,8.43
2022-12-07T07:12:28.415Z,9.13
2022-12-07T07:14:56.723Z,9.07
2022-12-07T07:17:24.825Z,7.17
2022-12-07T07:19:54.479Z,8.50
2022-12-07T07:22:22.850Z,6.83
2022-12-07T07:24:51.203Z,8.27
2022-12-07T07:27:19.326Z,7.90
2022-12-07T07:29:47.507Z,8.37
2022-12-07T07:32:15.611Z,8.67
2022-12-07T07:34:44.208Z,9.47
2022-12-07T07:37:18.686Z,9.37
2022-12-07T07:39:50.242Z,9.17
2022-12-07T07:42:18.386Z,9.27
2022-12-07T07:44:47.712Z,8.33
2022-12-07T07:47:15.850Z,9.47
2022-12-07T07:49:47.995Z,8.50
2022-12-07T07:52:18.194Z,10.13
2022-12-07T07:54:46.400Z,10.10
2022-12-07T07:57:14.677Z,10.43
2022-12-07T07:59:42.941Z,13.33
2022-12-07T08:02:12.714Z,11.80
2022-12-07T08:04:41.041Z,10.03
2022-12-07T08:07:09.193Z,8.27
2022-12-07T08:09:38.664Z,11.47
2022-12-07T08:12:07.500Z,10.43
2022-12-07T08:14:35.925Z,9.63
2022-12-07T08:17:04.160Z,11.40
2022-12-07T08:19:32.598Z,11.43
2022-12-07T08:22:00.793Z,12.67
2022-12-07T08:24:29.067Z,9.30
2022-12-07T08:26:58.634Z,9.10
2022-12-07T08:29:26.772Z,11.17
2022-12-07T08:31:54.914Z,9.53
2022-12-07T08:34:23.109Z,8.70
2022-12-07T08:36:51.554Z,10.73
2022-12-07T08:39:35.422Z,10.73
2022-12-07T08:42:05.130Z,10.37
2022-12-07T08:44:33.362Z,11.63
2022-12-07T08:47:03.839Z,12.60
2022-12-07T08:49:34.760Z,10.17
2022-12-07T08:52:03.047Z,15.87
2022-12-07T08:54:31.251Z,10.33
2022-12-07T08:57:00.108Z,8.97
2022-12-07T08:59:29.732Z,10.90
2022-12-07T09:01:57.997Z,11.77
2022-12-07T09:04:26.309Z,11.97
2022-12-07T09:06:54.475Z,10.90
2022-12-07T09:09:22.714Z,11.53
2022-12-07T09:11:50.903Z,12.00
2022-12-07T09:14:19.861Z,11.77
2022-12-07T09:16:49.421Z,11.07
2022-12-07T09:19:17.551Z,12.67
2022-12-07T09:21:45.695Z,13.27
2022-12-07T09:24:14.376Z,11.60
2022-12-07T09:26:42.489Z,11.10
2022-12-07T09:29:10.622Z,9.57
2022-12-07T09:31:39.460Z,10.77
2022-12-07T09:34:32.230Z,9.93
2022-12-07T09:37:09.010Z,12.40
2022-12-07T09:39:43.317Z,11.83
2022-12-07T09:42:26.814Z,13.23
2022-12-07T09:44:55.172Z,13.00
2022-12-07T09:47:23.428Z,11.50
2022-12-07T09:49:52.947Z,12.00
2022-12-07T09:52:23.577Z,12.00
2022-12-07T09:54:52.118Z,13.97
2022-12-07T09:57:29.170Z,10.67
2022-12-07T09:59:58.405Z,12.43
2022-12-07T10:02:35.351Z,10.43
2022-12-07T10:05:07.404Z,11.67
2022-12-07T10:07:35.803Z,11.77
2022-12-07T10:10:06.792Z,15.83
2022-12-07T10:12:54.425Z,14.10
2022-12-07T10:15:22.626Z,11.40
2022-12-07T10:17:51.511Z,11.00
2022-12-07T10:20:26.718Z,13.93
2022-12-07T10:23:00.718Z,10.87
2022-12-07T10:25:32.995Z,12.83
2022-12-07T10:28:03.968Z,14.30
2022-12-07T10:30:32.492Z,12.60
2022-12-07T10:33:00.874Z,12.23
2022-12-07T10:35:31.716Z,11.47
2022-12-07T10:38:01.410Z,14.20
2022-12-07T10:40:34.177Z,11.97
2022-12-07T10:43:08.211Z,12.70
2022-12-07T10:45:52.004Z,11.83
2022-12-07T10:48:31.189Z,17.40
2022-12-07T10:51:08.329Z,13.30
2022-12-07T10:53:50.330Z,13.97
2022-12-07T10:57:08.749Z,11.50
2022-12-07T11:00:13.918Z,10.47
2022-12-07T11:03:01.617Z,13.17
2022-12-07T11:05:32.383Z,13.47
2022-12-07T11:08:07.140Z,14.07
2022-12-07T11:10:42.958Z,12.50
2022-12-07T11:13:28.623Z,12.40
2022-12-07T11:16:36.172Z,11.30
2022-12-07T11:19:22.772Z,14.13
2022-12-07T11:21:58.510Z,14.33
2022-12-07T11:24:33.739Z,13.40
2022-12-07T11:27:16.092Z,12.60
2022-12-07T11:30:10.722Z,15.53
2022-12-07T11:32:57.804Z,12.37
2022-12-07T11:35:35.464Z,14.33
2022-12-07T11:38:09.633Z,14.07
2022-12-07T11:40:39.185Z,14.90
2022-12-07T11:43:15.340Z,15.60
2022-12-07T11:45:44.510Z,27.93
2022-12-07T11:48:16.017Z,16.80
2022-12-07T11:50:45.249Z,12.93
2022-12-07T11:53:18.122Z,15.20
2022-12-07T11:55:52.438Z,12.10
2022-12-07T11:58:44.876Z,15.13
2022-12-07T12:01:23.318Z,13.53
2022-12-07T12:03:53.669Z,14.30
2022-12-07T12:06:22.498Z,12.93
2022-12-07T12:15:02.432Z,12.63
2022-12-07T12:18:07.175Z,13.93
2022-12-07T12:20:38.049Z,12.10
2022-12-07T12:23:09.356Z,12.67
2022-12-07T12:25:40.830Z,13.87
2022-12-07T12:28:25.272Z,14.57
2022-12-07T12:31:14.916Z,13.63
2022-12-07T12:33:46.162Z,12.00
2022-12-07T12:36:26.973Z,11.73
2022-12-07T12:39:14.600Z,13.30
2022-12-07T12:42:10.160Z,17.10
2022-12-07T12:45:06.948Z,13.03
2022-12-07T12:48:06.217Z,16.07
2022-12-07T12:50:35.350Z,11.30
2022-12-07T12:53:28.962Z,11.50
2022-12-07T12:56:35.324Z,17.47
2022-12-07T12:59:25.236Z,14.43
2022-12-07T13:01:56.675Z,15.10
2022-12-07T13:04:41.287Z,14.00
2022-12-07T13:07:36.509Z,13.90
2022-12-07T13:10:05.749Z,12.80
2022-12-07T13:12:33.938Z,12.00
2022-12-07T13:15:02.624Z,11.83
2022-12-07T13:18:27.728Z,14.30
2022-12-07T13:20:57.709Z,12.17
2022-12-07T13:23:32.186Z,12.93
2022-12-07T13:26:18.005Z,14.03
2022-12-07T13:28:48.105Z,12.57
2022-12-07T13:31:37.945Z,12.30
2022-12-07T13:34:28.057Z,22.27
2022-12-07T13:36:56.220Z,13.57
2022-12-07T13:39:26.454Z,15.23
2022-12-07T13:41:56.125Z,10.53
2022-12-07T13:44:24.563Z,8.57
2022-12-07T13:46:59.754Z,11.20
2022-12-07T13:49:30.494Z,10.07
2022-12-07T13:52:16.787Z,10.97
2022-12-07T13:54:49.755Z,9.63
2022-12-07T13:57:17.966Z,11.77
2022-12-07T13:59:46.142Z,8.73
2022-12-07T14:02:22.194Z,10.30
2022-12-07T14:04:52.638Z,12.13
2022-12-07T14:07:24.085Z,10.33
2022-12-07T14:10:02.332Z,10.07
2022-12-07T14:12:31.809Z,11.77
2022-12-07T14:15:01.191Z,11.93
2022-12-07T14:17:31.520Z,18.97
2022-12-07T14:20:01.518Z,16.00
2022-12-07T14:22:32.787Z,16.80
2022-12-07T14:25:19.856Z,22.47
2022-12-07T14:27:59.156Z,12.03
2022-12-07T14:30:28.943Z,10.17
2022-12-07T14:33:00.091Z,9.37
2022-12-07T14:35:30.098Z,9.33
2022-12-07T14:37:58.355Z,8.60
2022-12-07T14:40:28.282Z,7.27
2022-12-07T14:42:58.544Z,7.33
2022-12-07T14:45:26.698Z,7.10
2022-12-07T14:53:37.781Z,7.30
2022-12-07T14:56:07.428Z,7.10
2022-12-07T14:58:35.664Z,6.40
2022-12-07T15:01:03.838Z,6.73
2022-12-07T15:03:32.063Z,11.60
2022-12-07T15:06:01.569Z,9.07
2022-12-07T15:08:29.806Z,7.63
2022-12-07T15:10:58.100Z,8.27
2022-12-07T15:13:58.423Z,7.90
2022-12-07T15:16:26.727Z,4.97
2022-12-07T15:19:26.176Z,8.03
2022-12-07T15:21:44.608Z,8.73
2022-12-07T15:24:13.029Z,7.97
2022-12-07T15:26:41.759Z,7.87
2022-12-07T15:29:10.234Z,7.77
2022-12-07T15:31:55.239Z,6.53
2022-12-07T15:34:25.882Z,7.00
2022-12-07T15:36:55.334Z,6.73
2022-12-07T15:39:23.660Z,6.40
2022-12-07T15:41:51.830Z,6.50
2022-12-07T15:44:37.731Z,8.80
2022-12-07T15:47:06.528Z,7.50
2022-12-07T15:49:34.715Z,5.97
2022-12-07T15:52:04.163Z,5.43
2022-12-07T15:54:33.058Z,8.93
2022-12-07T15:57:01.232Z,5.60
2022-12-07T15:59:29.978Z,6.53
2022-12-07T16:01:58.408Z,6.13
2022-12-07T16:04:26.657Z,6.27
2022-12-07T16:06:54.766Z,6.20
2022-12-07T16:09:24.231Z,6.00
2022-12-07T16:11:53.157Z,6.87
2022-12-07T16:14:21.593Z,7.93
2022-12-07T16:16:50.429Z,6.53
2022-12-07T16:19:18.544Z,7.63
2022-12-07T16:21:46.689Z,5.90
2022-12-07T16:24:16.211Z,5.90
2022-12-07T16:26:49.927Z,6.80
2022-12-07T16:29:19.095Z,7.37
2022-12-07T16:31:47.411Z,7.50
2022-12-07T16:34:15.592Z,5.77
2022-12-07T16:39:31.968Z,6.47
2022-12-07T16:42:01.911Z,8.43
2022-12-07T16:44:30.148Z,8.30
2022-12-07T16:46:58.306Z,8.43
2022-12-07T16:49:26.900Z,8.03
2022-12-07T16:52:18.207Z,10.97
2022-12-07T16:54:43.923Z,7.10
2022-12-07T16:57:18.366Z,8.33
2022-12-07T16:59:50.536Z,9.03
2022-12-07T17:02:18.831Z,10.97
2022-12-07T17:04:46.962Z,9.87
2022-12-07T17:07:15.101Z,9.33
2022-12-07T17:09:43.311Z,8.43
2022-12-07T17:12:12.791Z,9.17
2022-12-07T17:14:58.409Z,9.47
2022-12-07T17:17:26.548Z,8.47
2022-12-07T17:19:54.697Z,9.40
2022-12-07T17:22:22.843Z,10.00
2022-12-07T17:24:50.988Z,7.77
2022-12-07T17:27:20.411Z,10.23
2022-12-07T17:29:48.567Z,11.43
2022-12-07T17:32:16.857Z,8.60
2022-12-07T17:34:45.129Z,8.23
2022-12-07T17:37:13.293Z,7.80
2022-12-07T17:39:41.637Z,9.90
2022-12-07T17:42:28.220Z,7.03
2022-12-07T17:44:57.738Z,8.30
2022-12-07T17:47:25.870Z,8.87
2022-12-07T17:49:53.988Z,8.47
2022-12-07T17:52:40.031Z,8.23
2022-12-07T17:55:09.452Z,8.37
2022-12-07T17:57:37.601Z,8.77
2022-12-07T18:00:09.674Z,7.60
2022-12-07T18:02:40.842Z,15.73
2022-12-07T18:05:11.216Z,15.50
2022-12-07T18:07:39.384Z,15.57
2022-12-07T18:10:09.270Z,11.13
2022-12-07T18:12:37.434Z,10.77
2022-12-07T18:15:07.978Z,11.37
2022-12-07T18:17:36.162Z,11.43
2022-12-07T18:20:05.005Z,11.07
2022-12-07T18:22:33.147Z,9.10
2022-12-07T18:25:01.678Z,9.57
2022-12-07T18:27:30.096Z,9.60
2022-12-07T18:29:59.601Z,10.33
2022-12-07T18:32:30.891Z,11.03
2022-12-07T18:34:59.587Z,7.67
2022-12-07T18:37:28.380Z,9.47
2022-12-07T18:39:57.861Z,10.70
2022-12-07T18:42:26.000Z,9.67
2022-12-07T18:44:54.158Z,9.43
2022-12-07T18:47:22.352Z,10.00
2022-12-07T18:49:52.043Z,10.30
2022-12-07T18:52:20.207Z,12.03
2022-12-07T18:54:48.635Z,10.97
2022-12-07T18:57:16.741Z,10.83
2022-12-07T18:59:48.711Z,13.53
2022-12-07T19:02:18.736Z,16.50
2022-12-07T19:04:47.170Z,15.40
2022-12-07T19:07:17.246Z,13.63
2022-12-07T19:09:45.383Z,12.20
2022-12-07T19:12:13.978Z,14.07
2022-12-07T19:14:42.385Z,13.73
2022-12-07T19:17:12.156Z,13.37
2022-12-07T19:19:41.880Z,13.93
2022-12-07T19:22:10.635Z,14.00
2022-12-07T19:24:40.277Z,13.13
2022-12-07T19:27:08.680Z,16.30
2022-12-07T19:29:36.819Z,14.53
2022-12-07T19:32:08.640Z,13.80
2022-12-07T19:34:37.388Z,14.47
2022-12-07T19:37:05.590Z,16.03
2022-12-07T19:39:33.780Z,14.43
2022-12-07T19:42:03.243Z,13.97
2022-12-07T19:44:33.717Z,15.07
2022-12-07T19:47:05.295Z,20.63
2022-12-07T19:49:35.045Z,15.27
2022-12-07T19:52:05.641Z,15.63
2022-12-07T19:54:34.410Z,16.87
2022-12-07T19:57:05.497Z,18.27
2022-12-07T19:59:33.819Z,17.50
2022-12-07T20:02:02.363Z,14.23
2022-12-07T20:04:32.532Z,15.70
2022-12-07T20:07:01.191Z,16.13
2022-12-07T20:09:29.296Z,16.63
2022-12-07T20:12:15.190Z,19.70
2022-12-07T20:14:44.816Z,16.20
2022-12-07T20:17:13.137Z,16.40
2022-12-07T20:19:41.457Z,15.73
2022-12-07T20:22:09.730Z,14.27
2022-12-07T20:24:38.036Z,19.17
2022-12-07T20:27:06.278Z,18.07
2022-12-07T20:29:34.461Z,16.37
2022-12-07T20:32:04.517Z,14.73
2022-12-07T20:34:32.705Z,14.87
2022-12-07T20:37:00.787Z,19.63
2022-12-07T20:39:29.139Z,16.40
2022-12-07T20:42:15.155Z,15.83
2022-12-07T20:44:43.319Z,16.43
2022-12-07T20:47:13.199Z,14.43
2022-12-07T20:49:41.376Z,15.20
2022-12-07T20:52:09.533Z,15.50
2022-12-07T20:54:37.981Z,14.87
2022-12-07T20:57:06.102Z,17.10
2022-12-07T20:59:39.781Z,14.43
2022-12-07T21:02:13.125Z,15.90
2022-12-07T21:05:00.028Z,16.67
2022-12-07T21:07:48.556Z,16.13
2022-12-07T21:10:37.196Z,16.30
2022-12-07T21:13:25.599Z,16.20
2022-12-07T21:16:15.931Z,18.63
2022-12-07T21:19:05.793Z,16.87
2022-12-07T21:21:54.231Z,18.87
2022-12-07T21:24:42.656Z,15.07
2022-12-07T21:27:31.145Z,17.60
2022-12-07T21:30:19.542Z,17.30
2022-12-07T21:33:07.945Z,14.73
2022-12-07T21:35:57.699Z,13.83
2022-12-07T21:38:46.328Z,13.97
2022-12-07T21:41:35.666Z,16.40
2022-12-07T21:44:24.115Z,17.40
2022-12-07T21:47:12.566Z,16.27
2022-12-07T21:50:00.984Z,17.53
2022-12-07T21:52:51.219Z,15.67
2022-12-07T21:55:41.358Z,16.17
2022-12-07T21:58:29.825Z,14.47
2022-12-07T22:01:19.211Z,15.80
2022-12-07T22:04:07.789Z,16.20
2022-12-07T22:06:56.995Z,15.20
2022-12-07T22:09:46.899Z,14.93
2022-12-07T22:12:35.312Z,17.10
2022-12-07T22:15:23.803Z,17.40
2022-12-07T22:18:12.204Z,16.20
2022-12-07T22:21:01.390Z,18.93
2022-12-07T22:23:49.827Z,15.23
2022-12-07T22:26:39.621Z,15.20
2022-12-07T22:29:28.204Z,14.63
2022-12-07T22:32:47.303Z,16.67
2022-12-07T22:35:24.988Z,20.47
2022-12-07T22:38:14.510Z,16.70
2022-12-07T22:41:09.718Z,16.90
2022-12-07T22:43:59.714Z,16.07
2022-12-07T22:46:48.259Z,15.30
2022-12-07T22:49:36.758Z,16.20
2022-12-07T22:52:25.217Z,16.10
2022-12-07T22:55:13.602Z,15.47
2022-12-07T22:58:01.998Z,15.87
2022-12-07T23:00:51.757Z,17.37
2022-12-07T23:03:40.250Z,18.33
2022-12-07T23:06:32.196Z,17.23
2022-12-07T23:09:20.591Z,17.07
2022-12-07T23:12:27.931Z,13.57
2022-12-07T23:15:16.690Z,17.20
2022-12-07T23:18:06.815Z,16.13
2022-12-07T23:20:57.975Z,17.77
2022-12-07T23:23:46.453Z,16.10
2022-12-07T23:26:34.874Z,15.93
2022-12-07T23:29:23.229Z,18.80
2022-12-07T23:32:11.615Z,13.77
2022-12-07T23:35:01.749Z,17.23
2022-12-07T23:37:50.418Z,15.73
2022-12-07T23:40:38.819Z,18.47
2022-12-07T23:43:28.381Z,18.77
2022-12-07T23:46:18.310Z,16.67
2022-12-07T23:49:06.994Z,17.07
2022-12-07T23:51:56.745Z,19.10
2022-12-07T23:54:45.466Z,17.77
2022-12-07T23:57:33.884Z,15.73
